Tuscola, Illinois
Current Conditions -  °F | °C
As of 4:53 PM on Wednesday 22 Oct 2014 (Local Time) from KCMI Reporting Station
Clear Clear  
Wind Chill: 59°   Ceiling: Unl
Heat Index: 59°   Visibility: 10mi
Dew Point: 36°   Wind: 3mph
Humidity: 42%   Direction: 80°E
Pressure: 30.26"   Gusts: NA
Location:  39.8°N, 88.28°W
Report Text: KCMI 222153Z 08003KT 10SM CLR 15/02 A3026 RMK AO2 SLP249 T01500022 $
Loading
Personal Weather Stations






























Interactive Weather Map
Tropical Storm Tracking
New forecast layout! Learn more

10-Day Weather Forecast

Advertisements
Track Severe Weather on mobile